sensor_id;sensor_type;location;lat;lon;timestamp;P1;durP1;ratioP1;P2;durP2;ratioP2
1879;SDS011;49285;49.002;8.390;2024-03-02T00:02:01;11.17;;;7.73;;
1879;SDS011;49285;49.002;8.390;2024-03-02T00:04:26;9.13;;;6.80;;
1879;SDS011;49285;49.002;8.390;2024-03-02T00:06:52;8.30;;;6.20;;
1879;SDS011;49285;49.002;8.390;2024-03-02T00:09:19;8.20;;;6.47;;
1879;SDS011;49285;49.002;8.390;2024-03-02T00:11:45;8.17;;;7.03;;
1879;SDS011;49285;49.002;8.390;2024-03-02T00:14:11;6.67;;;5.97;;
1879;SDS011;49285;49.002;8.390;2024-03-02T00:16:37;9.90;;;7.30;;
1879;SDS011;49285;49.002;8.390;2024-03-02T00:19:03;9.00;;;6.43;;
1879;SDS011;49285;49.002;8.390;2024-03-02T00:21:30;8.93;;;7.07;;
1879;SDS011;49285;49.002;8.390;2024-03-02T00:23:56;7.80;;;6.90;;
1879;SDS011;49285;49.002;8.390;2024-03-02T00:26:22;7.70;;;6.10;;
1879;SDS011;49285;49.002;8.390;2024-03-02T00:28:48;8.93;;;6.43;;
1879;SDS011;49285;49.002;8.390;2024-03-02T00:31:15;8.23;;;6.30;;
1879;SDS011;49285;49.002;8.390;2024-03-02T00:33:48;8.27;;;5.87;;
1879;SDS011;49285;49.002;8.390;2024-03-02T00:36:21;7.93;;;6.47;;
1879;SDS011;49285;49.002;8.390;2024-03-02T00:38:50;9.97;;;6.30;;
1879;SDS011;49285;49.002;8.390;2024-03-02T00:41:27;9.57;;;6.13;;
1879;SDS011;49285;49.002;8.390;2024-03-02T00:44:03;8.83;;;6.37;;
1879;SDS011;49285;49.002;8.390;2024-03-02T00:46:37;10.50;;;6.90;;
1879;SDS011;49285;49.002;8.390;2024-03-02T00:49:04;9.33;;;6.40;;
1879;SDS011;49285;49.002;8.390;2024-03-02T00:51:35;7.50;;;5.90;;
1879;SDS011;49285;49.002;8.390;2024-03-02T00:54:02;8.40;;;5.93;;
1879;SDS011;49285;49.002;8.390;2024-03-02T00:56:29;6.53;;;5.10;;
1879;SDS011;49285;49.002;8.390;2024-03-02T00:58:56;7.50;;;5.90;;
1879;SDS011;49285;49.002;8.390;2024-03-02T01:01:21;7.27;;;5.50;;
1879;SDS011;49285;49.002;8.390;2024-03-02T01:03:47;9.77;;;6.93;;
1879;SDS011;49285;49.002;8.390;2024-03-02T01:06:14;9.63;;;7.20;;
1879;SDS011;49285;49.002;8.390;2024-03-02T01:08:40;9.73;;;7.70;;
1879;SDS011;49285;49.002;8.390;2024-03-02T01:11:06;10.13;;;7.30;;
1879;SDS011;49285;49.002;8.390;2024-03-02T01:13:32;11.30;;;8.17;;
1879;SDS011;49285;49.002;8.390;2024-03-02T01:15:57;11.40;;;8.03;;
1879;SDS011;49285;49.002;8.390;2024-03-02T01:18:24;9.87;;;7.43;;
1879;SDS011;49285;49.002;8.390;2024-03-02T01:20:50;9.33;;;7.80;;
1879;SDS011;49285;49.002;8.390;2024-03-02T01:23:21;9.13;;;6.57;;
1879;SDS011;49285;49.002;8.390;2024-03-02T01:25:47;9.20;;;6.93;;
1879;SDS011;49285;49.002;8.390;2024-03-02T01:28:13;10.90;;;8.30;;
1879;SDS011;49285;49.002;8.390;2024-03-02T01:30:39;8.57;;;7.20;;
1879;SDS011;49285;49.002;8.390;2024-03-02T01:33:04;12.70;;;8.90;;
1879;SDS011;49285;49.002;8.390;2024-03-02T01:35:30;10.40;;;7.00;;
1879;SDS011;49285;49.002;8.390;2024-03-02T01:37:56;9.20;;;7.40;;
1879;SDS011;49285;49.002;8.390;2024-03-02T01:40:22;11.70;;;6.83;;
1879;SDS011;49285;49.002;8.390;2024-03-02T01:42:51;9.43;;;7.90;;
1879;SDS011;49285;49.002;8.390;2024-03-02T01:45:18;11.63;;;7.40;;
1879;SDS011;49285;49.002;8.390;2024-03-02T01:47:44;10.30;;;7.87;;
1879;SDS011;49285;49.002;8.390;2024-03-02T01:50:10;8.70;;;6.77;;
1879;SDS011;49285;49.002;8.390;2024-03-02T01:52:36;10.07;;;6.87;;
1879;SDS011;49285;49.002;8.390;2024-03-02T01:55:02;10.30;;;7.23;;
1879;SDS011;49285;49.002;8.390;2024-03-02T01:57:28;8.33;;;6.20;;
1879;SDS011;49285;49.002;8.390;2024-03-02T01:59:54;8.67;;;6.30;;
1879;SDS011;49285;49.002;8.390;2024-03-02T02:02:20;8.03;;;6.33;;
1879;SDS011;49285;49.002;8.390;2024-03-02T02:04:46;9.67;;;6.20;;
1879;SDS011;49285;49.002;8.390;2024-03-02T02:07:12;8.93;;;5.33;;
1879;SDS011;49285;49.002;8.390;2024-03-02T02:09:39;10.47;;;6.87;;
1879;SDS011;49285;49.002;8.390;2024-03-02T02:12:06;8.20;;;5.53;;
1879;SDS011;49285;49.002;8.390;2024-03-02T02:14:32;7.77;;;5.37;;
1879;SDS011;49285;49.002;8.390;2024-03-02T02:16:58;6.97;;;5.13;;
1879;SDS011;49285;49.002;8.390;2024-03-02T02:19:24;7.37;;;5.50;;
1879;SDS011;49285;49.002;8.390;2024-03-02T02:21:50;8.20;;;5.10;;
1879;SDS011;49285;49.002;8.390;2024-03-02T02:24:15;7.70;;;5.43;;
1879;SDS011;49285;49.002;8.390;2024-03-02T02:26:41;7.83;;;5.00;;
1879;SDS011;49285;49.002;8.390;2024-03-02T02:29:06;8.23;;;5.40;;
1879;SDS011;49285;49.002;8.390;2024-03-02T02:31:38;6.67;;;4.83;;
1879;SDS011;49285;49.002;8.390;2024-03-02T02:34:05;9.43;;;4.93;;
1879;SDS011;49285;49.002;8.390;2024-03-02T02:36:31;6.63;;;4.87;;
1879;SDS011;49285;49.002;8.390;2024-03-02T02:39:03;6.83;;;5.10;;
1879;SDS011;49285;49.002;8.390;2024-03-02T02:41:29;7.07;;;5.60;;
1879;SDS011;49285;49.002;8.390;2024-03-02T02:43:55;5.63;;;5.07;;
1879;SDS011;49285;49.002;8.390;2024-03-02T02:46:21;6.73;;;5.70;;
1879;SDS011;49285;49.002;8.390;2024-03-02T02:48:47;7.80;;;5.67;;
1879;SDS011;49285;49.002;8.390;2024-03-02T02:51:12;7.93;;;6.00;;
1879;SDS011;49285;49.002;8.390;2024-03-02T02:53:38;8.00;;;6.03;;
1879;SDS011;49285;49.002;8.390;2024-03-02T02:56:06;7.93;;;5.53;;
1879;SDS011;49285;49.002;8.390;2024-03-02T02:58:31;6.80;;;4.80;;
1879;SDS011;49285;49.002;8.390;2024-03-02T03:00:57;6.00;;;5.17;;
1879;SDS011;49285;49.002;8.390;2024-03-02T03:03:22;6.87;;;5.50;;
1879;SDS011;49285;49.002;8.390;2024-03-02T03:05:48;6.93;;;5.70;;
1879;SDS011;49285;49.002;8.390;2024-03-02T03:08:14;6.97;;;5.73;;
1879;SDS011;49285;49.002;8.390;2024-03-02T03:10:41;10.40;;;6.03;;
1879;SDS011;49285;49.002;8.390;2024-03-02T03:13:06;6.07;;;4.40;;
1879;SDS011;49285;49.002;8.390;2024-03-02T03:15:34;8.90;;;5.20;;
1879;SDS011;49285;49.002;8.390;2024-03-02T03:18:01;8.30;;;4.60;;
1879;SDS011;49285;49.002;8.390;2024-03-02T03:20:30;6.00;;;4.80;;
1879;SDS011;49285;49.002;8.390;2024-03-02T03:22:56;6.50;;;5.00;;
1879;SDS011;49285;49.002;8.390;2024-03-02T03:25:22;8.40;;;5.00;;
1879;SDS011;49285;49.002;8.390;2024-03-02T03:27:48;6.70;;;5.23;;
1879;SDS011;49285;49.002;8.390;2024-03-02T03:30:13;6.73;;;5.40;;
1879;SDS011;49285;49.002;8.390;2024-03-02T03:32:39;7.47;;;4.47;;
1879;SDS011;49285;49.002;8.390;2024-03-02T03:35:05;6.93;;;4.73;;
1879;SDS011;49285;49.002;8.390;2024-03-02T03:37:31;5.83;;;4.47;;
1879;SDS011;49285;49.002;8.390;2024-03-02T03:40:00;6.73;;;4.63;;
1879;SDS011;49285;49.002;8.390;2024-03-02T03:42:27;6.03;;;4.43;;
1879;SDS011;49285;49.002;8.390;2024-03-02T03:44:53;5.47;;;4.40;;
1879;SDS011;49285;49.002;8.390;2024-03-02T03:47:19;12.20;;;5.30;;
1879;SDS011;49285;49.002;8.390;2024-03-02T03:49:45;8.43;;;4.43;;
1879;SDS011;49285;49.002;8.390;2024-03-02T03:52:10;5.40;;;4.10;;
1879;SDS011;49285;49.002;8.390;2024-03-02T03:54:36;5.33;;;4.40;;
1879;SDS011;49285;49.002;8.390;2024-03-02T03:57:03;6.13;;;4.17;;
1879;SDS011;49285;49.002;8.390;2024-03-02T03:59:29;6.00;;;4.60;;
1879;SDS011;49285;49.002;8.390;2024-03-02T04:01:54;4.37;;;3.63;;
1879;SDS011;49285;49.002;8.390;2024-03-02T04:04:20;6.37;;;4.93;;
1879;SDS011;49285;49.002;8.390;2024-03-02T04:06:45;6.77;;;5.13;;
1879;SDS011;49285;49.002;8.390;2024-03-02T04:09:11;5.10;;;3.87;;
1879;SDS011;49285;49.002;8.390;2024-03-02T04:11:36;5.60;;;4.40;;
1879;SDS011;49285;49.002;8.390;2024-03-02T04:14:02;5.20;;;4.53;;
1879;SDS011;49285;49.002;8.390;2024-03-02T04:16:28;4.70;;;4.13;;
1879;SDS011;49285;49.002;8.390;2024-03-02T04:18:53;6.00;;;4.57;;
1879;SDS011;49285;49.002;8.390;2024-03-02T04:21:19;5.77;;;4.47;;
1879;SDS011;49285;49.002;8.390;2024-03-02T04:23:45;5.60;;;4.43;;
1879;SDS011;49285;49.002;8.390;2024-03-02T04:26:10;5.50;;;4.47;;
1879;SDS011;49285;49.002;8.390;2024-03-02T04:28:36;7.23;;;4.70;;
1879;SDS011;49285;49.002;8.390;2024-03-02T04:31:01;5.80;;;4.87;;
1879;SDS011;49285;49.002;8.390;2024-03-02T04:33:27;8.53;;;5.40;;
1879;SDS011;49285;49.002;8.390;2024-03-02T04:35:53;10.07;;;5.73;;
1879;SDS011;49285;49.002;8.390;2024-03-02T04:38:18;9.20;;;5.10;;
1879;SDS011;49285;49.002;8.390;2024-03-02T04:40:44;8.40;;;5.50;;
1879;SDS011;49285;49.002;8.390;2024-03-02T04:43:09;7.70;;;4.83;;
1879;SDS011;49285;49.002;8.390;2024-03-02T04:45:37;6.17;;;5.30;;
1879;SDS011;49285;49.002;8.390;2024-03-02T04:48:03;7.67;;;5.40;;
1879;SDS011;49285;49.002;8.390;2024-03-02T04:50:29;7.80;;;5.70;;
1879;SDS011;49285;49.002;8.390;2024-03-02T04:52:55;8.53;;;5.20;;
1879;SDS011;49285;49.002;8.390;2024-03-02T04:55:20;8.20;;;6.00;;
1879;SDS011;49285;49.002;8.390;2024-03-02T04:57:49;7.10;;;6.10;;
1879;SDS011;49285;49.002;8.390;2024-03-02T05:00:15;6.33;;;4.77;;
1879;SDS011;49285;49.002;8.390;2024-03-02T05:02:42;9.13;;;6.27;;
1879;SDS011;49285;49.002;8.390;2024-03-02T05:05:07;7.73;;;5.37;;
1879;SDS011;49285;49.002;8.390;2024-03-02T05:07:33;6.60;;;4.83;;
1879;SDS011;49285;49.002;8.390;2024-03-02T05:09:59;6.70;;;5.50;;
1879;SDS011;49285;49.002;8.390;2024-03-02T05:12:24;7.10;;;5.30;;
1879;SDS011;49285;49.002;8.390;2024-03-02T05:15:08;6.97;;;5.20;;
1879;SDS011;49285;49.002;8.390;2024-03-02T05:17:39;8.30;;;5.90;;
1879;SDS011;49285;49.002;8.390;2024-03-02T05:20:05;10.33;;;6.27;;
1879;SDS011;49285;49.002;8.390;2024-03-02T05:22:33;10.07;;;6.17;;
1879;SDS011;49285;49.002;8.390;2024-03-02T05:24:59;10.23;;;6.37;;
1879;SDS011;49285;49.002;8.390;2024-03-02T05:27:25;9.63;;;7.07;;
1879;SDS011;49285;49.002;8.390;2024-03-02T05:29:54;8.83;;;6.67;;
1879;SDS011;49285;49.002;8.390;2024-03-02T05:32:20;11.50;;;7.63;;
1879;SDS011;49285;49.002;8.390;2024-03-02T05:34:45;9.97;;;6.83;;
1879;SDS011;49285;49.002;8.390;2024-03-02T05:37:11;7.50;;;6.60;;
1879;SDS011;49285;49.002;8.390;2024-03-02T05:39:37;9.30;;;7.10;;
1879;SDS011;49285;49.002;8.390;2024-03-02T05:42:02;9.40;;;7.33;;
1879;SDS011;49285;49.002;8.390;2024-03-02T05:44:28;9.90;;;7.30;;
1879;SDS011;49285;49.002;8.390;2024-03-02T05:46:54;17.00;;;7.30;;
1879;SDS011;49285;49.002;8.390;2024-03-02T05:49:20;10.67;;;8.13;;
1879;SDS011;49285;49.002;8.390;2024-03-02T05:51:45;9.37;;;7.13;;
1879;SDS011;49285;49.002;8.390;2024-03-02T05:54:11;10.70;;;7.33;;
1879;SDS011;49285;49.002;8.390;2024-03-02T05:56:37;11.43;;;8.23;;
1879;SDS011;49285;49.002;8.390;2024-03-02T05:59:02;7.77;;;6.60;;
1879;SDS011;49285;49.002;8.390;2024-03-02T06:01:47;10.17;;;6.90;;
1879;SDS011;49285;49.002;8.390;2024-03-02T06:04:15;8.30;;;6.87;;
1879;SDS011;49285;49.002;8.390;2024-03-02T06:06:41;8.73;;;7.40;;
1879;SDS011;49285;49.002;8.390;2024-03-02T06:09:07;10.60;;;7.70;;
1879;SDS011;49285;49.002;8.390;2024-03-02T06:11:36;10.90;;;8.17;;
1879;SDS011;49285;49.002;8.390;2024-03-02T06:14:03;12.63;;;7.13;;
1879;SDS011;49285;49.002;8.390;2024-03-02T06:16:29;10.50;;;7.40;;
1879;SDS011;49285;49.002;8.390;2024-03-02T06:18:55;8.60;;;7.20;;
1879;SDS011;49285;49.002;8.390;2024-03-02T06:21:22;8.63;;;7.70;;
1879;SDS011;49285;49.002;8.390;2024-03-02T06:23:48;8.53;;;7.30;;
1879;SDS011;49285;49.002;8.390;2024-03-02T06:26:14;11.07;;;8.10;;
1879;SDS011;49285;49.002;8.390;2024-03-02T06:28:40;10.33;;;7.90;;
1879;SDS011;49285;49.002;8.390;2024-03-02T06:31:05;8.57;;;7.60;;
1879;SDS011;49285;49.002;8.390;2024-03-02T06:33:31;9.27;;;7.63;;
1879;SDS011;49285;49.002;8.390;2024-03-02T06:35:57;10.67;;;7.57;;
1879;SDS011;49285;49.002;8.390;2024-03-02T06:38:22;11.03;;;7.73;;
1879;SDS011;49285;49.002;8.390;2024-03-02T06:40:48;9.13;;;7.30;;
1879;SDS011;49285;49.002;8.390;2024-03-02T06:43:13;10.40;;;7.27;;
1879;SDS011;49285;49.002;8.390;2024-03-02T06:45:39;9.33;;;7.40;;
1879;SDS011;49285;49.002;8.390;2024-03-02T06:48:04;9.37;;;7.30;;
1879;SDS011;49285;49.002;8.390;2024-03-02T06:50:30;10.60;;;7.57;;
1879;SDS011;49285;49.002;8.390;2024-03-02T06:52:56;14.30;;;8.37;;
1879;SDS011;49285;49.002;8.390;2024-03-02T06:55:22;8.63;;;7.60;;
1879;SDS011;49285;49.002;8.390;2024-03-02T06:57:49;9.40;;;7.70;;
1879;SDS011;49285;49.002;8.390;2024-03-02T07:00:15;11.10;;;8.13;;
1879;SDS011;49285;49.002;8.390;2024-03-02T07:02:42;9.80;;;8.20;;
1879;SDS011;49285;49.002;8.390;2024-03-02T07:05:09;9.60;;;8.37;;
1879;SDS011;49285;49.002;8.390;2024-03-02T07:07:35;10.60;;;8.73;;
1879;SDS011;49285;49.002;8.390;2024-03-02T07:10:01;10.00;;;9.00;;
1879;SDS011;49285;49.002;8.390;2024-03-02T07:12:28;10.70;;;9.60;;
1879;SDS011;49285;49.002;8.390;2024-03-02T07:14:53;11.27;;;9.63;;
1879;SDS011;49285;49.002;8.390;2024-03-02T07:17:36;12.10;;;8.73;;
1879;SDS011;49285;49.002;8.390;2024-03-02T07:20:02;9.80;;;8.20;;
1879;SDS011;49285;49.002;8.390;2024-03-02T07:22:31;9.70;;;8.70;;
1879;SDS011;49285;49.002;8.390;2024-03-02T07:24:58;9.23;;;8.00;;
1879;SDS011;49285;49.002;8.390;2024-03-02T07:27:23;10.33;;;8.20;;
1879;SDS011;49285;49.002;8.390;2024-03-02T07:29:49;8.63;;;7.50;;
1879;SDS011;49285;49.002;8.390;2024-03-02T07:32:15;10.00;;;8.47;;
1879;SDS011;49285;49.002;8.390;2024-03-02T07:34:40;9.97;;;7.77;;
1879;SDS011;49285;49.002;8.390;2024-03-02T07:37:06;8.77;;;7.87;;
1879;SDS011;49285;49.002;8.390;2024-03-02T07:39:32;10.97;;;8.23;;
1879;SDS011;49285;49.002;8.390;2024-03-02T07:41:57;11.50;;;9.60;;
1879;SDS011;49285;49.002;8.390;2024-03-02T07:44:24;9.27;;;7.10;;
1879;SDS011;49285;49.002;8.390;2024-03-02T07:46:49;12.50;;;8.13;;
1879;SDS011;49285;49.002;8.390;2024-03-02T07:49:15;8.73;;;7.73;;
1879;SDS011;49285;49.002;8.390;2024-03-02T07:51:41;9.17;;;7.90;;
1879;SDS011;49285;49.002;8.390;2024-03-02T07:54:07;9.63;;;8.63;;
1879;SDS011;49285;49.002;8.390;2024-03-02T07:56:32;12.53;;;9.23;;
1879;SDS011;49285;49.002;8.390;2024-03-02T07:58:58;9.30;;;7.47;;
1879;SDS011;49285;49.002;8.390;2024-03-02T08:01:29;10.93;;;8.07;;
1879;SDS011;49285;49.002;8.390;2024-03-02T08:03:56;10.57;;;7.70;;
1879;SDS011;49285;49.002;8.390;2024-03-02T08:06:24;10.70;;;8.27;;
1879;SDS011;49285;49.002;8.390;2024-03-02T08:08:52;10.83;;;7.67;;
1879;SDS011;49285;49.002;8.390;2024-03-02T08:11:29;11.17;;;7.80;;
1879;SDS011;49285;49.002;8.390;2024-03-02T08:13:56;10.63;;;6.40;;
1879;SDS011;49285;49.002;8.390;2024-03-02T08:16:22;6.90;;;5.67;;
1879;SDS011;49285;49.002;8.390;2024-03-02T08:18:48;11.70;;;9.30;;
1879;SDS011;49285;49.002;8.390;2024-03-02T08:21:14;9.67;;;5.70;;
1879;SDS011;49285;49.002;8.390;2024-03-02T08:23:40;7.33;;;4.83;;
1879;SDS011;49285;49.002;8.390;2024-03-02T08:26:07;7.33;;;5.33;;
1879;SDS011;49285;49.002;8.390;2024-03-02T08:28:33;6.30;;;5.07;;
1879;SDS011;49285;49.002;8.390;2024-03-02T08:30:59;8.97;;;5.07;;
1879;SDS011;49285;49.002;8.390;2024-03-02T08:33:25;5.50;;;4.67;;
1879;SDS011;49285;49.002;8.390;2024-03-02T08:35:50;6.27;;;4.50;;
1879;SDS011;49285;49.002;8.390;2024-03-02T08:38:16;6.33;;;4.50;;
1879;SDS011;49285;49.002;8.390;2024-03-02T08:40:42;5.87;;;4.40;;
1879;SDS011;49285;49.002;8.390;2024-03-02T08:43:07;29.17;;;5.37;;
1879;SDS011;49285;49.002;8.390;2024-03-02T08:45:33;7.07;;;4.30;;
1879;SDS011;49285;49.002;8.390;2024-03-02T08:47:59;6.30;;;4.33;;
1879;SDS011;49285;49.002;8.390;2024-03-02T08:50:25;31.97;;;6.03;;
1879;SDS011;49285;49.002;8.390;2024-03-02T08:52:50;11.03;;;4.00;;
1879;SDS011;49285;49.002;8.390;2024-03-02T08:55:16;6.37;;;4.00;;
1879;SDS011;49285;49.002;8.390;2024-03-02T08:57:41;4.87;;;3.60;;
1879;SDS011;49285;49.002;8.390;2024-03-02T09:00:07;5.27;;;4.50;;
1879;SDS011;49285;49.002;8.390;2024-03-02T09:02:33;5.13;;;3.53;;
1879;SDS011;49285;49.002;8.390;2024-03-02T09:04:59;5.97;;;3.53;;
1879;SDS011;49285;49.002;8.390;2024-03-02T09:07:25;4.87;;;3.50;;
1879;SDS011;49285;49.002;8.390;2024-03-02T09:09:50;6.23;;;3.73;;
1879;SDS011;49285;49.002;8.390;2024-03-02T09:12:17;5.00;;;3.73;;
1879;SDS011;49285;49.002;8.390;2024-03-02T09:14:43;4.20;;;3.10;;
1879;SDS011;49285;49.002;8.390;2024-03-02T09:17:09;5.20;;;3.70;;
1879;SDS011;49285;49.002;8.390;2024-03-02T09:19:36;7.80;;;4.00;;
1879;SDS011;49285;49.002;8.390;2024-03-02T09:22:02;3.83;;;3.30;;
1879;SDS011;49285;49.002;8.390;2024-03-02T09:24:30;5.57;;;3.23;;
1879;SDS011;49285;49.002;8.390;2024-03-02T09:26:59;4.13;;;3.40;;
1879;SDS011;49285;49.002;8.390;2024-03-02T09:29:24;4.70;;;3.10;;
1879;SDS011;49285;49.002;8.390;2024-03-02T09:31:50;5.43;;;3.27;;
1879;SDS011;49285;49.002;8.390;2024-03-02T09:34:16;5.93;;;3.60;;
1879;SDS011;49285;49.002;8.390;2024-03-02T09:36:42;3.93;;;3.50;;
1879;SDS011;49285;49.002;8.390;2024-03-02T09:39:08;3.57;;;3.10;;
1879;SDS011;49285;49.002;8.390;2024-03-02T09:41:34;3.93;;;3.20;;
1879;SDS011;49285;49.002;8.390;2024-03-02T09:44:02;4.20;;;3.40;;
1879;SDS011;49285;49.002;8.390;2024-03-02T09:46:27;5.77;;;4.83;;
1879;SDS011;49285;49.002;8.390;2024-03-02T09:48:53;6.73;;;3.10;;
1879;SDS011;49285;49.002;8.390;2024-03-02T09:51:19;4.23;;;3.40;;
1879;SDS011;49285;49.002;8.390;2024-03-02T09:53:45;8.87;;;3.30;;
1879;SDS011;49285;49.002;8.390;2024-03-02T09:56:12;5.17;;;3.03;;
1879;SDS011;49285;49.002;8.390;2024-03-02T09:58:38;9.17;;;3.00;;
1879;SDS011;49285;49.002;8.390;2024-03-02T10:01:06;7.27;;;3.80;;
1879;SDS011;49285;49.002;8.390;2024-03-02T10:03:33;5.43;;;3.20;;
1879;SDS011;49285;49.002;8.390;2024-03-02T10:08:46;26.60;;;4.33;;
1879;SDS011;49285;49.002;8.390;2024-03-02T10:14:14;5.77;;;3.40;;
1879;SDS011;49285;49.002;8.390;2024-03-02T10:16:40;5.27;;;3.53;;
1879;SDS011;49285;49.002;8.390;2024-03-02T10:19:19;5.50;;;2.97;;
1879;SDS011;49285;49.002;8.390;2024-03-02T10:21:52;11.30;;;3.27;;
1879;SDS011;49285;49.002;8.390;2024-03-02T10:24:19;4.10;;;3.30;;
1879;SDS011;49285;49.002;8.390;2024-03-02T10:26:46;4.60;;;3.10;;
1879;SDS011;49285;49.002;8.390;2024-03-02T10:29:12;4.57;;;3.37;;
1879;SDS011;49285;49.002;8.390;2024-03-02T10:31:38;3.80;;;3.03;;
1879;SDS011;49285;49.002;8.390;2024-03-02T10:34:05;4.20;;;3.50;;
1879;SDS011;49285;49.002;8.390;2024-03-02T10:36:32;4.80;;;3.90;;
1879;SDS011;49285;49.002;8.390;2024-03-02T10:39:02;4.30;;;3.20;;
1879;SDS011;49285;49.002;8.390;2024-03-02T10:41:29;3.80;;;3.10;;
1879;SDS011;49285;49.002;8.390;2024-03-02T10:43:59;5.40;;;3.40;;
1879;SDS011;49285;49.002;8.390;2024-03-02T10:46:27;4.33;;;2.90;;
1879;SDS011;49285;49.002;8.390;2024-03-02T10:48:54;3.53;;;2.90;;
1879;SDS011;49285;49.002;8.390;2024-03-02T10:51:27;3.80;;;3.37;;
1879;SDS011;49285;49.002;8.390;2024-03-02T10:53:56;3.47;;;2.53;;
1879;SDS011;49285;49.002;8.390;2024-03-02T10:59:00;3.70;;;2.90;;
1879;SDS011;49285;49.002;8.390;2024-03-02T11:01:53;4.87;;;2.97;;
1879;SDS011;49285;49.002;8.390;2024-03-02T11:04:21;3.63;;;2.77;;
1879;SDS011;49285;49.002;8.390;2024-03-02T11:06:49;4.40;;;3.13;;
1879;SDS011;49285;49.002;8.390;2024-03-02T11:09:16;6.10;;;2.70;;
1879;SDS011;49285;49.002;8.390;2024-03-02T11:11:54;3.53;;;2.57;;
1879;SDS011;49285;49.002;8.390;2024-03-02T11:14:27;3.50;;;2.50;;
1879;SDS011;49285;49.002;8.390;2024-03-02T11:16:58;4.30;;;3.00;;
1879;SDS011;49285;49.002;8.390;2024-03-02T11:19:26;4.27;;;3.87;;
1879;SDS011;49285;49.002;8.390;2024-03-02T11:21:53;3.97;;;2.30;;
1879;SDS011;49285;49.002;8.390;2024-03-02T11:26:48;2.63;;;2.00;;
1879;SDS011;49285;49.002;8.390;2024-03-02T11:32:00;6.67;;;5.43;;
1879;SDS011;49285;49.002;8.390;2024-03-02T11:34:31;2.80;;;2.23;;
1879;SDS011;49285;49.002;8.390;2024-03-02T11:36:58;5.33;;;4.30;;
1879;SDS011;49285;49.002;8.390;2024-03-02T11:39:27;3.67;;;3.00;;
1879;SDS011;49285;49.002;8.390;2024-03-02T11:41:54;2.33;;;1.90;;
1879;SDS011;49285;49.002;8.390;2024-03-02T11:44:20;2.70;;;2.10;;
1879;SDS011;49285;49.002;8.390;2024-03-02T11:46:57;4.67;;;2.20;;
1879;SDS011;49285;49.002;8.390;2024-03-02T11:52:06;2.90;;;2.20;;
1879;SDS011;49285;49.002;8.390;2024-03-02T11:54:34;4.07;;;2.33;;
1879;SDS011;49285;49.002;8.390;2024-03-02T11:57:02;4.07;;;2.20;;
1879;SDS011;49285;49.002;8.390;2024-03-02T11:59:31;2.47;;;2.07;;
1879;SDS011;49285;49.002;8.390;2024-03-02T12:01:57;3.37;;;2.50;;
1879;SDS011;49285;49.002;8.390;2024-03-02T12:04:24;3.80;;;2.57;;
1879;SDS011;49285;49.002;8.390;2024-03-02T12:06:56;2.63;;;2.20;;
1879;SDS011;49285;49.002;8.390;2024-03-02T12:09:27;3.60;;;2.50;;
1879;SDS011;49285;49.002;8.390;2024-03-02T12:12:06;3.27;;;2.20;;
1879;SDS011;49285;49.002;8.390;2024-03-02T12:14:36;2.93;;;2.20;;
1879;SDS011;49285;49.002;8.390;2024-03-02T12:17:03;2.90;;;2.40;;
1879;SDS011;49285;49.002;8.390;2024-03-02T12:19:29;3.53;;;2.20;;
1879;SDS011;49285;49.002;8.390;2024-03-02T12:21:56;3.13;;;1.90;;
1879;SDS011;49285;49.002;8.390;2024-03-02T12:24:22;3.03;;;2.23;;
1879;SDS011;49285;49.002;8.390;2024-03-02T12:26:49;2.50;;;2.30;;
1879;SDS011;49285;49.002;8.390;2024-03-02T12:29:15;3.00;;;2.30;;
1879;SDS011;49285;49.002;8.390;2024-03-02T12:31:42;2.77;;;2.13;;
1879;SDS011;49285;49.002;8.390;2024-03-02T12:34:10;2.60;;;2.10;;
1879;SDS011;49285;49.002;8.390;2024-03-02T12:36:38;4.20;;;2.20;;
1879;SDS011;49285;49.002;8.390;2024-03-02T12:39:04;2.90;;;2.50;;
1879;SDS011;49285;49.002;8.390;2024-03-02T12:41:30;3.37;;;2.23;;
1879;SDS011;49285;49.002;8.390;2024-03-02T12:43:56;2.73;;;2.53;;
1879;SDS011;49285;49.002;8.390;2024-03-02T12:46:21;3.60;;;2.33;;
1879;SDS011;49285;49.002;8.390;2024-03-02T12:48:47;2.67;;;2.43;;
1879;SDS011;49285;49.002;8.390;2024-03-02T12:51:12;2.50;;;2.30;;
1879;SDS011;49285;49.002;8.390;2024-03-02T12:53:39;2.63;;;2.33;;
1879;SDS011;49285;49.002;8.390;2024-03-02T12:56:05;3.00;;;2.70;;
1879;SDS011;49285;49.002;8.390;2024-03-02T12:58:38;2.80;;;2.60;;
1879;SDS011;49285;49.002;8.390;2024-03-02T13:01:05;2.83;;;2.47;;
1879;SDS011;49285;49.002;8.390;2024-03-02T13:03:34;2.80;;;2.60;;
1879;SDS011;49285;49.002;8.390;2024-03-02T13:06:01;2.93;;;2.70;;
1879;SDS011;49285;49.002;8.390;2024-03-02T13:08:27;3.07;;;2.73;;
1879;SDS011;49285;49.002;8.390;2024-03-02T13:10:53;5.13;;;2.60;;
1879;SDS011;49285;49.002;8.390;2024-03-02T13:13:19;3.00;;;2.70;;
1879;SDS011;49285;49.002;8.390;2024-03-02T13:15:44;2.60;;;2.33;;
1879;SDS011;49285;49.002;8.390;2024-03-02T13:18:10;8.93;;;8.17;;
1879;SDS011;49285;49.002;8.390;2024-03-02T13:20:36;7.70;;;7.07;;
1879;SDS011;49285;49.002;8.390;2024-03-02T13:23:02;3.13;;;2.87;;
1879;SDS011;49285;49.002;8.390;2024-03-02T13:25:28;3.83;;;3.50;;
1879;SDS011;49285;49.002;8.390;2024-03-02T13:27:55;2.93;;;2.63;;
1879;SDS011;49285;49.002;8.390;2024-03-02T13:30:21;3.10;;;2.80;;
1879;SDS011;49285;49.002;8.390;2024-03-02T13:32:46;5.37;;;3.00;;
1879;SDS011;49285;49.002;8.390;2024-03-02T13:35:12;3.53;;;3.10;;
1879;SDS011;49285;49.002;8.390;2024-03-02T13:37:37;3.60;;;3.30;;
1879;SDS011;49285;49.002;8.390;2024-03-02T13:40:03;3.83;;;3.17;;
1879;SDS011;49285;49.002;8.390;2024-03-02T13:42:30;3.33;;;2.90;;
1879;SDS011;49285;49.002;8.390;2024-03-02T13:44:56;3.27;;;2.97;;
1879;SDS011;49285;49.002;8.390;2024-03-02T13:47:22;3.93;;;3.57;;
1879;SDS011;49285;49.002;8.390;2024-03-02T13:49:47;3.30;;;2.87;;
1879;SDS011;49285;49.002;8.390;2024-03-02T13:52:13;3.40;;;3.10;;
1879;SDS011;49285;49.002;8.390;2024-03-02T13:54:40;3.20;;;2.87;;
1879;SDS011;49285;49.002;8.390;2024-03-02T13:57:07;2.97;;;2.67;;
1879;SDS011;49285;49.002;8.390;2024-03-02T13:59:33;5.00;;;2.70;;
1879;SDS011;49285;49.002;8.390;2024-03-02T14:02:00;3.37;;;2.77;;
1879;SDS011;49285;49.002;8.390;2024-03-02T14:04:32;2.83;;;2.57;;
1879;SDS011;49285;49.002;8.390;2024-03-02T14:06:59;3.97;;;2.80;;
1879;SDS011;49285;49.002;8.390;2024-03-02T14:09:25;2.90;;;2.60;;
1879;SDS011;49285;49.002;8.390;2024-03-02T14:11:51;3.40;;;2.60;;
1879;SDS011;49285;49.002;8.390;2024-03-02T14:14:17;3.30;;;3.00;;
1879;SDS011;49285;49.002;8.390;2024-03-02T14:16:43;4.03;;;2.93;;
1879;SDS011;49285;49.002;8.390;2024-03-02T14:19:09;3.47;;;3.17;;
1879;SDS011;49285;49.002;8.390;2024-03-02T14:21:35;4.47;;;3.03;;
1879;SDS011;49285;49.002;8.390;2024-03-02T14:24:01;3.23;;;2.93;;
1879;SDS011;49285;49.002;8.390;2024-03-02T14:26:26;4.83;;;3.00;;
1879;SDS011;49285;49.002;8.390;2024-03-02T14:28:53;3.60;;;3.10;;
1879;SDS011;49285;49.002;8.390;2024-03-02T14:31:19;3.50;;;3.17;;
1879;SDS011;49285;49.002;8.390;2024-03-02T14:33:45;3.37;;;3.07;;
1879;SDS011;49285;49.002;8.390;2024-03-02T14:36:11;3.40;;;2.90;;
1879;SDS011;49285;49.002;8.390;2024-03-02T14:38:37;3.67;;;3.00;;
1879;SDS011;49285;49.002;8.390;2024-03-02T14:41:03;3.40;;;2.80;;
1879;SDS011;49285;49.002;8.390;2024-03-02T14:43:29;4.60;;;3.50;;
1879;SDS011;49285;49.002;8.390;2024-03-02T14:45:55;3.17;;;2.73;;
1879;SDS011;49285;49.002;8.390;2024-03-02T14:48:21;3.30;;;2.90;;
1879;SDS011;49285;49.002;8.390;2024-03-02T14:50:46;3.63;;;2.83;;
1879;SDS011;49285;49.002;8.390;2024-03-02T14:53:12;3.97;;;3.37;;
1879;SDS011;49285;49.002;8.390;2024-03-02T14:55:38;4.33;;;3.50;;
1879;SDS011;49285;49.002;8.390;2024-03-02T14:58:03;3.60;;;2.70;;
1879;SDS011;49285;49.002;8.390;2024-03-02T15:00:29;2.80;;;2.50;;
1879;SDS011;49285;49.002;8.390;2024-03-02T15:02:54;4.10;;;3.40;;
1879;SDS011;49285;49.002;8.390;2024-03-02T15:05:20;3.50;;;2.97;;
1879;SDS011;49285;49.002;8.390;2024-03-02T15:07:46;3.83;;;3.10;;
1879;SDS011;49285;49.002;8.390;2024-03-02T15:10:11;3.50;;;2.80;;
1879;SDS011;49285;49.002;8.390;2024-03-02T15:12:37;3.43;;;2.90;;
1879;SDS011;49285;49.002;8.390;2024-03-02T15:15:03;3.23;;;2.70;;